createdAt,value
2022-12-01T00:02:14.705Z,100969.00
2022-12-01T00:05:17.754Z,100966.50
2022-12-01T00:08:20.443Z,100970.62
2022-12-01T00:11:23.398Z,100968.87
2022-12-01T00:14:25.952Z,100967.19
2022-12-01T00:17:30.378Z,100968.25
2022-12-01T00:20:34.982Z,100963.03
2022-12-01T00:23:37.840Z,100963.09
2022-12-01T00:26:41.124Z,100969.59
2022-12-01T00:29:44.146Z,100969.50
2022-12-01T00:32:47.404Z,100983.19
2022-12-01T00:35:57.883Z,100985.91
2022-12-01T00:39:00.525Z,100978.25
2022-12-01T00:42:04.657Z,100980.38
2022-12-01T00:45:09.710Z,100978.75
2022-12-01T00:48:12.630Z,100981.81
2022-12-01T00:51:15.301Z,100991.19
2022-12-01T00:54:18.255Z,100991.22
2022-12-01T00:57:21.002Z,100982.03
2022-12-01T01:00:25.113Z,100989.78
2022-12-01T01:03:29.570Z,100990.53
2022-12-01T01:06:32.654Z,100981.12
2022-12-01T01:09:35.329Z,100972.09
2022-12-01T01:12:39.544Z,100973.25
2022-12-01T01:15:42.321Z,100980.47
2022-12-01T01:18:45.880Z,100972.78
2022-12-01T01:21:49.722Z,100980.09
2022-12-01T01:24:52.668Z,100969.94
2022-12-01T01:27:55.258Z,100967.50
2022-12-01T01:30:58.845Z,100963.34
2022-12-01T01:34:01.557Z,100967.88
2022-12-01T01:37:07.871Z,100968.09
2022-12-01T01:40:11.018Z,100958.97
2022-12-01T01:43:19.070Z,100967.56
2022-12-01T01:46:26.555Z,100967.44
2022-12-01T01:49:29.562Z,100970.59
2022-12-01T01:52:36.117Z,100964.69
2022-12-01T01:55:39.324Z,100973.63
2022-12-01T01:58:42.846Z,100968.13
2022-12-01T02:01:56.393Z,100972.06
2022-12-01T02:05:02.937Z,100972.78
2022-12-01T02:08:06.408Z,100983.94
2022-12-01T02:11:28.131Z,100990.97
2022-12-01T02:14:30.736Z,100994.28
2022-12-01T02:17:57.047Z,100992.25
2022-12-01T02:21:24.895Z,100991.84
2022-12-01T02:24:51.056Z,100993.66
2022-12-01T02:28:14.526Z,100985.72
2022-12-01T02:31:25.845Z,100982.94
2022-12-01T02:34:34.868Z,100986.22
2022-12-01T02:37:46.553Z,100979.22
2022-12-01T02:40:56.065Z,100976.63
2022-12-01T02:44:31.451Z,100973.25
2022-12-01T02:47:36.718Z,100972.34
2022-12-01T02:50:40.906Z,100970.16
2022-12-01T02:53:44.574Z,100967.94
2022-12-01T02:56:52.323Z,100960.00
2022-12-01T02:59:55.627Z,100960.84
2022-12-01T03:03:27.599Z,100950.03
2022-12-01T03:07:02.682Z,100952.81
2022-12-01T03:10:17.914Z,100951.00
2022-12-01T03:13:40.728Z,100949.44
2022-12-01T03:16:53.934Z,100945.00
2022-12-01T03:20:08.852Z,100946.81
2022-12-01T03:23:16.823Z,100947.22
2022-12-01T03:26:23.599Z,100932.91
2022-12-01T03:29:32.064Z,100939.53
2022-12-01T03:32:50.588Z,100949.53
2022-12-01T03:36:03.410Z,100946.16
2022-12-01T03:39:12.408Z,100953.16
2022-12-01T03:42:23.716Z,100951.06
2022-12-01T03:45:47.918Z,100957.56
2022-12-01T03:48:54.459Z,100955.25
2022-12-01T03:52:18.525Z,100961.53
2022-12-01T03:55:37.909Z,100965.81
2022-12-01T03:58:45.568Z,100970.22
2022-12-01T04:01:48.869Z,100972.69
2022-12-01T04:04:51.899Z,100975.94
2022-12-01T04:07:54.714Z,100971.72
2022-12-01T04:10:57.689Z,100975.94
2022-12-01T04:14:00.369Z,100973.78
2022-12-01T04:17:03.366Z,100982.25
2022-12-01T04:20:10.278Z,100973.03
2022-12-01T04:23:36.395Z,100969.97
2022-12-01T04:26:40.309Z,100980.25
2022-12-01T04:29:43.239Z,100975.56
2022-12-01T04:32:45.897Z,100972.81
2022-12-01T04:36:01.710Z,100978.53
2022-12-01T04:39:04.533Z,100979.16
2022-12-01T04:42:07.896Z,100983.81
2022-12-01T04:45:10.712Z,100982.50
2022-12-01T04:48:17.732Z,100988.38
2022-12-01T04:51:23.894Z,100993.13
2022-12-01T04:54:27.171Z,100993.34
2022-12-01T04:57:29.979Z,100992.41
2022-12-01T05:00:33.629Z,101004.91
2022-12-01T05:03:38.663Z,101001.75
2022-12-01T05:06:41.670Z,101001.59
2022-12-01T05:09:44.233Z,101007.31
2022-12-01T05:12:47.111Z,100995.12
2022-12-01T05:15:49.896Z,100999.50
2022-12-01T05:19:16.031Z,100996.91
2022-12-01T05:22:31.450Z,101005.16
2022-12-01T05:25:42.674Z,100996.34
2022-12-01T05:28:45.272Z,100992.94
2022-12-01T05:31:48.283Z,101002.78
2022-12-01T05:34:51.010Z,101011.09
2022-12-01T05:37:53.965Z,101002.94
2022-12-01T05:40:56.740Z,101013.63
2022-12-01T05:43:59.690Z,101002.03
2022-12-01T05:47:04.887Z,101001.06
2022-12-01T05:50:08.627Z,101008.81
2022-12-01T05:53:13.159Z,101010.41
2022-12-01T05:56:15.990Z,100994.56
2022-12-01T05:59:18.531Z,101003.81
2022-12-01T06:02:22.000Z,101005.78
2022-12-01T06:05:26.356Z,101002.97
2022-12-01T06:08:28.980Z,100995.03
2022-12-01T06:11:31.928Z,101004.72
2022-12-01T06:14:34.431Z,101006.53
2022-12-01T06:17:40.372Z,101010.19
2022-12-01T06:20:43.425Z,101021.88
2022-12-01T06:23:46.405Z,101022.53
2022-12-01T06:26:49.091Z,101011.66
2022-12-01T06:29:53.169Z,101027.37
2022-12-01T06:32:55.994Z,101030.22
2022-12-01T06:36:05.522Z,101020.66
2022-12-01T06:39:12.479Z,101030.50
2022-12-01T06:42:15.692Z,101037.78
2022-12-01T06:45:18.430Z,101038.84
2022-12-01T06:48:21.472Z,101035.44
2022-12-01T06:51:24.102Z,101040.34
2022-12-01T06:54:28.394Z,101031.34
2022-12-01T06:57:31.580Z,101038.88
2022-12-01T07:00:34.509Z,101040.78
2022-12-01T07:03:39.098Z,101045.41
2022-12-01T07:06:42.690Z,101030.59
2022-12-01T07:09:45.575Z,101040.37
2022-12-01T07:12:48.553Z,101048.84
2022-12-01T07:15:52.131Z,101060.50
2022-12-01T07:18:55.138Z,101056.16
2022-12-01T07:21:57.726Z,101056.72
2022-12-01T07:25:00.625Z,101055.84
2022-12-01T07:28:04.517Z,101058.78
2022-12-01T07:31:13.862Z,101066.91
2022-12-01T07:34:16.505Z,101060.81
2022-12-01T07:37:19.454Z,101071.19
2022-12-01T07:40:22.272Z,101073.63
2022-12-01T07:43:25.294Z,101071.00
2022-12-01T07:46:29.026Z,101077.47
2022-12-01T07:49:32.098Z,101070.00
2022-12-01T07:52:34.667Z,101069.66
2022-12-01T07:55:37.712Z,101070.97
2022-12-01T07:58:40.565Z,101066.78
2022-12-01T08:01:44.888Z,101067.81
2022-12-01T08:04:47.954Z,101063.72
2022-12-01T08:07:50.625Z,101076.00
2022-12-01T08:10:53.981Z,101068.78
2022-12-01T08:13:56.963Z,101071.34
2022-12-01T08:16:59.892Z,101075.53
2022-12-01T08:20:02.625Z,101068.41
2022-12-01T08:23:05.605Z,101071.91
2022-12-01T08:26:13.021Z,101068.31
2022-12-01T08:29:20.081Z,101071.03
2022-12-01T08:32:23.186Z,101064.13
2022-12-01T08:35:26.180Z,101069.25
2022-12-01T09:57:37.033Z,101020.44
2022-12-01T10:00:43.966Z,101010.22
2022-12-01T10:03:54.721Z,101023.00
2022-12-01T10:07:25.336Z,100998.44
2022-12-01T10:10:38.328Z,101007.00
2022-12-01T10:13:43.746Z,101001.47
2022-12-01T10:17:15.305Z,101001.38
2022-12-01T10:20:22.557Z,101002.78
2022-12-01T10:23:40.606Z,101009.84
2022-12-01T10:26:57.949Z,101012.50
2022-12-01T10:30:10.302Z,101003.50
2022-12-01T10:33:41.854Z,101012.50
2022-12-01T10:36:44.861Z,101000.00
2022-12-01T10:39:51.990Z,101005.78
2022-12-01T10:42:55.503Z,100989.72
2022-12-01T10:46:01.573Z,101003.47
2022-12-01T10:49:16.273Z,100983.09
2022-12-01T10:52:41.558Z,100977.13
2022-12-01T10:55:48.170Z,100977.62
2022-12-01T10:58:55.378Z,100973.09
2022-12-01T11:01:59.783Z,100976.03
2022-12-01T11:05:18.785Z,100974.03
2022-12-01T11:08:46.997Z,100956.38
2022-12-01T11:12:01.787Z,100962.78
2022-12-01T11:15:05.629Z,100949.63
2022-12-01T11:18:29.974Z,100952.84
2022-12-01T11:21:33.137Z,100944.31
2022-12-01T11:24:55.386Z,100941.34
2022-12-01T11:28:02.123Z,100939.78
2022-12-01T11:31:10.983Z,100937.97
2022-12-01T11:34:25.692Z,100935.78
2022-12-01T11:37:38.150Z,100930.66
2022-12-01T11:40:58.761Z,100931.50
2022-12-01T11:44:09.157Z,100932.22
2022-12-01T11:47:24.640Z,100934.28
2022-12-01T11:50:31.778Z,100925.66
2022-12-01T11:53:37.599Z,100921.47
2022-12-01T11:56:41.963Z,100932.91
2022-12-01T11:59:45.108Z,100911.31
2022-12-01T12:03:20.686Z,100922.19
2022-12-01T12:06:39.853Z,100918.50
2022-12-01T12:09:51.013Z,100919.53
2022-12-01T12:13:09.788Z,100912.22
2022-12-01T12:16:50.893Z,100922.66
2022-12-01T12:20:27.794Z,100928.56
2022-12-01T12:23:35.136Z,100920.31
2022-12-01T12:26:50.438Z,100917.16
2022-12-01T12:29:53.104Z,100914.47
2022-12-01T12:33:19.859Z,100921.69
2022-12-01T12:36:28.026Z,100926.62
2022-12-01T12:39:47.842Z,100921.84
2022-12-01T12:43:07.034Z,100919.38
2022-12-01T12:46:23.131Z,100914.78
2022-12-01T12:49:35.872Z,100919.75
2022-12-01T12:52:54.517Z,100918.69
2022-12-01T12:56:04.987Z,100920.69
2022-12-01T12:59:35.491Z,100914.25
2022-12-01T13:02:44.422Z,100920.97
2022-12-01T13:06:00.785Z,100913.62
2022-12-01T13:09:11.551Z,100912.66
2022-12-01T13:12:17.327Z,100919.00
2022-12-01T13:15:21.607Z,100916.97
2022-12-01T13:18:39.773Z,100924.25
2022-12-01T13:21:45.363Z,100922.66
2022-12-01T13:24:48.481Z,100923.47
2022-12-01T13:27:52.594Z,100922.13
2022-12-01T13:31:01.949Z,100915.34
2022-12-01T13:34:06.263Z,100918.84
2022-12-01T13:37:11.735Z,100916.16
2022-12-01T13:40:28.244Z,100924.47
2022-12-01T13:43:32.273Z,100920.97
2022-12-01T13:46:45.456Z,100916.00
2022-12-01T13:49:50.199Z,100907.81
2022-12-01T13:53:13.118Z,100900.72
2022-12-01T13:56:15.971Z,100905.63
2022-12-01T14:00:00.579Z,100905.34
2022-12-01T14:03:12.837Z,100909.75
2022-12-01T14:06:49.367Z,100916.75
2022-12-01T14:09:56.452Z,100913.38
2022-12-01T14:13:05.487Z,100911.56
2022-12-01T14:16:08.858Z,100913.03
2022-12-01T14:19:33.264Z,100900.56
2022-12-01T14:22:44.069Z,100923.56
2022-12-01T14:26:11.713Z,100914.31
2022-12-01T14:29:43.979Z,100915.13
2022-12-01T14:32:47.196Z,100917.56
2022-12-01T14:35:50.680Z,100913.66
2022-12-01T14:38:59.840Z,100909.25
2022-12-01T14:43:01.498Z,100916.53
2022-12-01T14:46:10.519Z,100918.09
2022-12-01T14:49:24.173Z,100913.88
2022-12-01T14:52:27.119Z,100916.09
2022-12-01T14:55:50.331Z,100912.38
2022-12-01T14:58:57.409Z,100908.63
2022-12-01T15:02:09.317Z,100908.03
2022-12-01T15:05:26.027Z,100916.00
2022-12-01T15:08:41.881Z,100910.16
2022-12-01T15:11:58.820Z,100907.66
2022-12-01T15:15:01.454Z,100918.41
2022-12-01T15:18:21.884Z,100917.41
2022-12-01T15:21:30.871Z,100918.72
2022-12-01T15:24:34.279Z,100918.00
2022-12-01T15:27:38.112Z,100913.94
2022-12-01T15:30:42.877Z,100910.00
2022-12-01T15:33:51.660Z,100911.84
2022-12-01T15:36:56.220Z,100908.75
2022-12-01T15:43:33.167Z,100915.78
2022-12-01T15:46:35.787Z,100927.66
2022-12-01T15:49:49.475Z,100922.16
2022-12-01T15:52:52.358Z,100919.72
2022-12-01T15:55:59.289Z,100919.41
2022-12-01T15:59:09.967Z,100917.25
2022-12-01T16:02:32.908Z,100920.50
2022-12-01T16:08:39.272Z,100916.50
2022-12-01T16:12:17.742Z,100926.88
2022-12-01T16:15:22.921Z,100922.78
2022-12-01T16:18:32.149Z,100926.75
2022-12-01T16:21:47.476Z,100924.75
2022-12-01T16:24:56.358Z,100924.87
2022-12-01T16:28:01.588Z,100927.81
2022-12-01T16:31:06.395Z,100925.34
2022-12-01T16:34:44.089Z,100932.37
2022-12-01T16:37:40.221Z,100924.38
2022-12-01T16:40:44.323Z,100927.47
2022-12-01T16:44:12.603Z,100929.97
2022-12-01T16:47:14.950Z,100925.13
2022-12-01T16:50:22.671Z,100927.41
2022-12-01T16:53:26.480Z,100929.84
2022-12-01T16:56:29.555Z,100928.47
2022-12-01T16:59:32.677Z,100931.47
2022-12-01T17:02:36.125Z,100925.19
2022-12-01T17:05:41.346Z,100929.66
2022-12-01T17:08:46.326Z,100931.84
2022-12-01T17:11:49.187Z,100933.94
2022-12-01T17:14:52.437Z,100928.28
2022-12-01T17:17:55.461Z,100929.47
2022-12-01T17:21:07.606Z,100934.06
2022-12-01T17:24:10.167Z,100936.16
2022-12-01T17:27:13.571Z,100930.16
2022-12-01T17:30:17.075Z,100938.19
2022-12-01T17:33:20.377Z,100934.59
2022-12-01T17:36:27.654Z,100939.03
2022-12-01T17:39:30.922Z,100938.81
2022-12-01T17:42:34.534Z,100937.16
2022-12-01T17:45:42.224Z,100938.97
2022-12-01T17:48:46.769Z,100941.22
2022-12-01T17:51:49.893Z,100937.66
2022-12-01T17:54:52.856Z,100937.09
2022-12-01T17:57:56.627Z,100940.81
2022-12-01T18:01:00.708Z,100943.34
2022-12-01T18:04:07.210Z,100928.66
2022-12-01T18:07:10.313Z,100930.69
2022-12-01T18:10:13.841Z,100928.13
2022-12-01T18:13:20.345Z,100929.44
2022-12-01T18:16:28.377Z,100930.12
2022-12-01T18:19:32.812Z,100929.84
2022-12-01T18:22:36.492Z,100932.00
2022-12-01T18:25:40.440Z,100936.44
2022-12-01T18:28:43.989Z,100935.84
2022-12-01T18:31:47.828Z,100939.69
2022-12-01T18:34:51.519Z,100927.00
2022-12-01T18:37:54.624Z,100929.06
2022-12-01T18:40:59.552Z,100930.12
2022-12-01T18:44:03.403Z,100928.13
2022-12-01T18:47:07.272Z,100938.91
2022-12-01T18:50:10.625Z,100931.50
2022-12-01T18:53:14.830Z,100934.94
2022-12-01T18:56:20.666Z,100941.75
2022-12-01T18:59:23.986Z,100946.81
2022-12-01T19:02:27.204Z,100940.22
2022-12-01T19:05:33.883Z,100940.81
2022-12-01T19:08:36.912Z,100942.37
2022-12-01T19:11:41.326Z,100940.12
2022-12-01T19:24:11.682Z,100943.56
2022-12-01T19:27:15.646Z,100945.19
2022-12-01T19:30:20.028Z,100947.06
2022-12-01T19:33:23.617Z,100946.59
2022-12-01T19:36:29.837Z,100945.28
2022-12-01T19:39:33.638Z,100945.94
2022-12-01T19:42:37.350Z,100963.00
2022-12-01T19:45:40.454Z,100953.53
2022-12-01T19:48:43.897Z,100954.47
2022-12-01T19:51:47.226Z,100949.75
2022-12-01T19:54:51.622Z,100954.72
2022-12-01T19:57:55.096Z,100957.78
2022-12-01T20:01:06.565Z,100952.59
2022-12-01T20:04:10.062Z,100956.28
2022-12-01T20:07:13.410Z,100955.91
2022-12-01T20:10:20.616Z,100958.44
2022-12-01T20:13:23.750Z,100961.66
2022-12-01T20:16:28.744Z,100954.91
2022-12-01T20:19:31.953Z,100957.44
2022-12-01T20:22:40.079Z,100961.59
2022-12-01T20:25:44.100Z,100961.78
2022-12-01T20:28:50.933Z,100962.16
2022-12-01T20:31:55.868Z,100967.94
2022-12-01T20:34:59.434Z,100963.78
2022-12-01T20:38:02.601Z,100970.09
2022-12-01T20:41:06.839Z,100959.56
2022-12-01T20:44:10.976Z,100960.50
2022-12-01T20:47:17.932Z,100969.75
2022-12-01T20:50:24.410Z,100966.16
2022-12-01T20:53:27.919Z,100962.34
2022-12-01T20:56:31.314Z,100964.19
2022-12-01T20:59:36.434Z,100960.56
2022-12-01T21:02:39.690Z,100957.12
2022-12-01T21:05:44.393Z,100955.09
2022-12-01T21:08:48.506Z,100968.47
2022-12-01T21:12:11.776Z,100971.53
2022-12-01T21:15:30.243Z,100968.97
2022-12-01T21:18:53.488Z,100975.56
2022-12-01T21:21:56.488Z,100968.25
2022-12-01T21:25:17.346Z,100971.81
2022-12-01T21:28:25.591Z,100976.75
2022-12-01T21:31:29.238Z,100964.25
2022-12-01T21:34:34.958Z,100979.25
2022-12-01T21:37:37.944Z,100978.28
2022-12-01T21:40:43.960Z,100991.72
2022-12-01T21:43:46.905Z,100993.63
2022-12-01T21:46:58.086Z,100991.56
2022-12-01T21:50:09.564Z,100984.62
2022-12-01T21:53:19.306Z,100986.56
2022-12-01T21:56:25.608Z,100990.88
2022-12-01T21:59:28.206Z,100986.06
2022-12-01T22:03:00.601Z,100996.19
2022-12-01T22:06:30.180Z,100996.50
2022-12-01T22:09:36.632Z,100995.09
2022-12-01T22:12:39.532Z,100990.34
2022-12-01T22:15:42.222Z,100995.19
2022-12-01T22:18:52.250Z,100998.19
2022-12-01T22:22:24.958Z,101002.16
2022-12-01T22:25:28.616Z,100991.50
2022-12-01T22:28:31.382Z,100989.06
2022-12-01T22:31:36.279Z,101001.88
2022-12-01T22:34:57.972Z,100999.34
2022-12-01T22:38:21.696Z,100994.06
2022-12-01T22:41:24.334Z,100986.81
2022-12-01T22:44:30.695Z,100992.56
2022-12-01T22:47:33.392Z,100989.94
2022-12-01T22:50:37.435Z,100985.38
2022-12-01T22:53:41.604Z,100984.12
2022-12-01T22:56:46.724Z,100980.75
2022-12-01T22:59:50.478Z,100978.25
2022-12-01T23:02:55.903Z,100979.19
2022-12-01T23:05:58.682Z,100974.78
2022-12-01T23:09:02.059Z,100967.69
2022-12-01T23:12:10.605Z,100964.50
2022-12-01T23:15:25.630Z,100959.19
2022-12-01T23:18:32.198Z,100960.09
2022-12-01T23:21:35.656Z,100962.25
2022-12-01T23:24:40.018Z,100960.62
2022-12-01T23:27:46.255Z,100967.47
2022-12-01T23:30:53.296Z,100963.31
2022-12-01T23:33:56.239Z,100969.06
2022-12-01T23:36:58.788Z,100964.16
2022-12-01T23:40:08.106Z,100968.59
2022-12-01T23:43:25.500Z,100973.25
2022-12-01T23:46:28.671Z,100961.38
2022-12-01T23:49:34.947Z,100967.72
2022-12-01T23:52:41.875Z,100963.81
2022-12-01T23:55:44.476Z,100969.28
2022-12-01T23:58:49.078Z,100970.09
